sensor_id;sensor_type;location;lat;lon;timestamp;P1;durP1;ratioP1;P2;durP2;ratioP2
7116;SDS011;3600;48.568;7.870;2023-09-30T00:00:59;4.47;;;2.00;;
7116;SDS011;3600;48.568;7.870;2023-09-30T00:03:26;2.47;;;1.40;;
7116;SDS011;3600;48.568;7.870;2023-09-30T00:05:53;2.20;;;1.60;;
7116;SDS011;3600;48.568;7.870;2023-09-30T00:08:20;5.03;;;2.30;;
7116;SDS011;3600;48.568;7.870;2023-09-30T00:10:47;4.10;;;2.05;;
7116;SDS011;3600;48.568;7.870;2023-09-30T00:13:14;3.67;;;1.67;;
7116;SDS011;3600;48.568;7.870;2023-09-30T00:15:41;3.25;;;1.90;;
7116;SDS011;3600;48.568;7.870;2023-09-30T00:18:07;3.15;;;1.70;;
7116;SDS011;3600;48.568;7.870;2023-09-30T00:20:35;2.55;;;1.95;;
7116;SDS011;3600;48.568;7.870;2023-09-30T00:23:02;2.15;;;1.45;;
7116;SDS011;3600;48.568;7.870;2023-09-30T00:25:29;3.47;;;1.80;;
7116;SDS011;3600;48.568;7.870;2023-09-30T00:27:56;2.67;;;1.65;;
7116;SDS011;3600;48.568;7.870;2023-09-30T00:30:23;4.63;;;2.28;;
7116;SDS011;3600;48.568;7.870;2023-09-30T00:32:50;3.65;;;2.88;;
7116;SDS011;3600;48.568;7.870;2023-09-30T00:35:17;5.13;;;2.47;;
7116;SDS011;3600;48.568;7.870;2023-09-30T00:37:44;2.67;;;2.20;;
7116;SDS011;3600;48.568;7.870;2023-09-30T00:40:11;3.30;;;2.05;;
7116;SDS011;3600;48.568;7.870;2023-09-30T00:42:38;6.93;;;2.63;;
7116;SDS011;3600;48.568;7.870;2023-09-30T00:45:05;4.30;;;2.50;;
7116;SDS011;3600;48.568;7.870;2023-09-30T00:47:33;3.17;;;2.20;;
7116;SDS011;3600;48.568;7.870;2023-09-30T00:50:01;5.18;;;2.05;;
7116;SDS011;3600;48.568;7.870;2023-09-30T00:52:35;4.05;;;2.40;;
7116;SDS011;3600;48.568;7.870;2023-09-30T00:55:04;4.63;;;2.53;;
7116;SDS011;3600;48.568;7.870;2023-09-30T00:57:32;3.60;;;2.30;;
7116;SDS011;3600;48.568;7.870;2023-09-30T01:00:00;3.00;;;2.30;;
7116;SDS011;3600;48.568;7.870;2023-09-30T01:02:28;4.68;;;2.22;;
7116;SDS011;3600;48.568;7.870;2023-09-30T01:04:55;4.15;;;2.50;;
7116;SDS011;3600;48.568;7.870;2023-09-30T01:07:22;2.83;;;2.22;;
7116;SDS011;3600;48.568;7.870;2023-09-30T01:09:49;4.60;;;2.40;;
7116;SDS011;3600;48.568;7.870;2023-09-30T01:12:16;3.47;;;2.38;;
7116;SDS011;3600;48.568;7.870;2023-09-30T01:14:44;4.20;;;2.78;;
7116;SDS011;3600;48.568;7.870;2023-09-30T01:17:10;4.88;;;3.00;;
7116;SDS011;3600;48.568;7.870;2023-09-30T01:19:40;4.78;;;3.08;;
7116;SDS011;3600;48.568;7.870;2023-09-30T01:22:09;5.60;;;3.00;;
7116;SDS011;3600;48.568;7.870;2023-09-30T01:24:40;4.97;;;3.10;;
7116;SDS011;3600;48.568;7.870;2023-09-30T01:27:08;4.03;;;3.10;;
7116;SDS011;3600;48.568;7.870;2023-09-30T01:29:36;4.10;;;2.97;;
7116;SDS011;3600;48.568;7.870;2023-09-30T01:32:05;4.05;;;3.03;;
7116;SDS011;3600;48.568;7.870;2023-09-30T01:34:36;4.47;;;2.55;;
7116;SDS011;3600;48.568;7.870;2023-09-30T01:37:03;4.55;;;2.95;;
7116;SDS011;3600;48.568;7.870;2023-09-30T01:39:31;3.58;;;3.08;;
7116;SDS011;3600;48.568;7.870;2023-09-30T01:41:58;3.03;;;2.50;;
7116;SDS011;3600;48.568;7.870;2023-09-30T01:44:26;4.53;;;2.80;;
7116;SDS011;3600;48.568;7.870;2023-09-30T01:46:52;10.77;;;3.25;;
7116;SDS011;3600;48.568;7.870;2023-09-30T01:49:19;6.82;;;3.35;;
7116;SDS011;3600;48.568;7.870;2023-09-30T01:51:46;6.50;;;3.53;;
7116;SDS011;3600;48.568;7.870;2023-09-30T01:54:13;5.82;;;3.85;;
7116;SDS011;3600;48.568;7.870;2023-09-30T01:56:40;3.90;;;3.05;;
7116;SDS011;3600;48.568;7.870;2023-09-30T01:59:07;5.47;;;3.22;;
7116;SDS011;3600;48.568;7.870;2023-09-30T02:01:33;5.53;;;3.10;;
7116;SDS011;3600;48.568;7.870;2023-09-30T02:04:00;5.32;;;3.08;;
7116;SDS011;3600;48.568;7.870;2023-09-30T02:06:27;5.95;;;3.10;;
7116;SDS011;3600;48.568;7.870;2023-09-30T02:08:54;5.03;;;3.10;;
7116;SDS011;3600;48.568;7.870;2023-09-30T02:11:21;6.60;;;3.25;;
7116;SDS011;3600;48.568;7.870;2023-09-30T02:13:48;3.55;;;2.67;;
7116;SDS011;3600;48.568;7.870;2023-09-30T02:16:15;4.53;;;2.75;;
7116;SDS011;3600;48.568;7.870;2023-09-30T02:18:43;5.43;;;2.83;;
7116;SDS011;3600;48.568;7.870;2023-09-30T02:21:11;3.58;;;2.50;;
7116;SDS011;3600;48.568;7.870;2023-09-30T02:23:38;3.13;;;2.17;;
7116;SDS011;3600;48.568;7.870;2023-09-30T02:26:05;6.55;;;2.92;;
7116;SDS011;3600;48.568;7.870;2023-09-30T02:28:32;2.60;;;2.33;;
7116;SDS011;3600;48.568;7.870;2023-09-30T02:31:00;4.93;;;2.72;;
7116;SDS011;3600;48.568;7.870;2023-09-30T02:33:27;6.07;;;2.60;;
7116;SDS011;3600;48.568;7.870;2023-09-30T02:35:54;4.45;;;2.70;;
7116;SDS011;3600;48.568;7.870;2023-09-30T02:38:21;3.60;;;2.20;;
7116;SDS011;3600;48.568;7.870;2023-09-30T02:40:49;3.72;;;2.28;;
7116;SDS011;3600;48.568;7.870;2023-09-30T02:43:18;4.82;;;2.80;;
7116;SDS011;3600;48.568;7.870;2023-09-30T02:45:44;2.63;;;2.15;;
7116;SDS011;3600;48.568;7.870;2023-09-30T02:48:12;3.20;;;2.35;;
7116;SDS011;3600;48.568;7.870;2023-09-30T02:50:43;3.75;;;2.58;;
7116;SDS011;3600;48.568;7.870;2023-09-30T02:53:12;2.72;;;2.05;;
7116;SDS011;3600;48.568;7.870;2023-09-30T02:55:40;3.08;;;2.58;;
7116;SDS011;3600;48.568;7.870;2023-09-30T02:58:07;4.53;;;3.13;;
7116;SDS011;3600;48.568;7.870;2023-09-30T03:00:35;3.00;;;2.30;;
7116;SDS011;3600;48.568;7.870;2023-09-30T03:03:04;4.38;;;2.63;;
7116;SDS011;3600;48.568;7.870;2023-09-30T03:05:31;4.45;;;2.40;;
7116;SDS011;3600;48.568;7.870;2023-09-30T03:08:01;4.35;;;2.58;;
7116;SDS011;3600;48.568;7.870;2023-09-30T03:10:31;3.20;;;2.40;;
7116;SDS011;3600;48.568;7.870;2023-09-30T03:12:57;4.55;;;2.83;;
7116;SDS011;3600;48.568;7.870;2023-09-30T03:15:28;4.65;;;2.95;;
7116;SDS011;3600;48.568;7.870;2023-09-30T03:17:58;4.57;;;2.60;;
7116;SDS011;3600;48.568;7.870;2023-09-30T03:20:26;5.80;;;2.63;;
7116;SDS011;3600;48.568;7.870;2023-09-30T03:22:56;4.22;;;2.70;;
7116;SDS011;3600;48.568;7.870;2023-09-30T03:25:23;3.08;;;2.38;;
7116;SDS011;3600;48.568;7.870;2023-09-30T03:27:50;4.28;;;2.70;;
7116;SDS011;3600;48.568;7.870;2023-09-30T03:30:17;4.57;;;2.80;;
7116;SDS011;3600;48.568;7.870;2023-09-30T03:32:46;3.42;;;2.30;;
7116;SDS011;3600;48.568;7.870;2023-09-30T03:35:14;3.97;;;2.30;;
7116;SDS011;3600;48.568;7.870;2023-09-30T03:37:45;7.07;;;2.67;;
7116;SDS011;3600;48.568;7.870;2023-09-30T03:40:13;4.03;;;2.80;;
7116;SDS011;3600;48.568;7.870;2023-09-30T03:42:53;3.95;;;2.50;;
7116;SDS011;3600;48.568;7.870;2023-09-30T03:45:20;3.65;;;2.78;;
7116;SDS011;3600;48.568;7.870;2023-09-30T03:47:48;2.88;;;2.42;;
7116;SDS011;3600;48.568;7.870;2023-09-30T03:50:15;4.78;;;3.15;;
7116;SDS011;3600;48.568;7.870;2023-09-30T03:52:43;4.97;;;3.17;;
7116;SDS011;3600;48.568;7.870;2023-09-30T03:55:13;3.20;;;2.40;;
7116;SDS011;3600;48.568;7.870;2023-09-30T03:57:43;3.20;;;2.38;;
7116;SDS011;3600;48.568;7.870;2023-09-30T04:00:14;4.78;;;2.63;;
7116;SDS011;3600;48.568;7.870;2023-09-30T04:02:47;3.97;;;2.80;;
7116;SDS011;3600;48.568;7.870;2023-09-30T04:05:17;4.90;;;3.00;;
7116;SDS011;3600;48.568;7.870;2023-09-30T04:07:44;5.00;;;2.78;;
7116;SDS011;3600;48.568;7.870;2023-09-30T04:10:11;3.78;;;2.58;;
7116;SDS011;3600;48.568;7.870;2023-09-30T04:12:37;2.53;;;1.90;;
7116;SDS011;3600;48.568;7.870;2023-09-30T04:15:05;4.72;;;2.33;;
7116;SDS011;3600;48.568;7.870;2023-09-30T04:17:32;2.90;;;2.42;;
7116;SDS011;3600;48.568;7.870;2023-09-30T04:19:59;3.25;;;2.40;;
7116;SDS011;3600;48.568;7.870;2023-09-30T04:22:26;4.28;;;2.50;;
7116;SDS011;3600;48.568;7.870;2023-09-30T04:24:54;6.07;;;2.95;;
7116;SDS011;3600;48.568;7.870;2023-09-30T04:27:21;2.65;;;2.15;;
7116;SDS011;3600;48.568;7.870;2023-09-30T04:29:48;4.53;;;2.50;;
7116;SDS011;3600;48.568;7.870;2023-09-30T04:32:16;4.68;;;2.20;;
7116;SDS011;3600;48.568;7.870;2023-09-30T04:34:43;3.60;;;2.70;;
7116;SDS011;3600;48.568;7.870;2023-09-30T04:37:12;3.42;;;2.17;;
7116;SDS011;3600;48.568;7.870;2023-09-30T04:39:40;4.22;;;2.70;;
7116;SDS011;3600;48.568;7.870;2023-09-30T04:42:07;3.55;;;2.47;;
7116;SDS011;3600;48.568;7.870;2023-09-30T04:44:38;3.80;;;2.70;;
7116;SDS011;3600;48.568;7.870;2023-09-30T04:47:04;4.38;;;2.40;;
7116;SDS011;3600;48.568;7.870;2023-09-30T04:49:31;3.88;;;2.22;;
7116;SDS011;3600;48.568;7.870;2023-09-30T04:51:58;6.13;;;3.60;;
7116;SDS011;3600;48.568;7.870;2023-09-30T04:54:25;3.10;;;2.72;;
7116;SDS011;3600;48.568;7.870;2023-09-30T04:56:52;3.25;;;2.35;;
7116;SDS011;3600;48.568;7.870;2023-09-30T04:59:19;4.65;;;2.40;;
7116;SDS011;3600;48.568;7.870;2023-09-30T05:01:45;2.67;;;2.30;;
7116;SDS011;3600;48.568;7.870;2023-09-30T05:04:12;2.75;;;2.30;;
7116;SDS011;3600;48.568;7.870;2023-09-30T05:06:39;7.43;;;2.75;;
7116;SDS011;3600;48.568;7.870;2023-09-30T05:09:06;5.15;;;2.70;;
7116;SDS011;3600;48.568;7.870;2023-09-30T05:11:33;3.83;;;2.50;;
7116;SDS011;3600;48.568;7.870;2023-09-30T05:14:01;4.10;;;2.60;;
7116;SDS011;3600;48.568;7.870;2023-09-30T05:16:31;4.28;;;2.80;;
7116;SDS011;3600;48.568;7.870;2023-09-30T05:18:58;2.58;;;2.33;;
7116;SDS011;3600;48.568;7.870;2023-09-30T05:21:25;4.28;;;2.55;;
7116;SDS011;3600;48.568;7.870;2023-09-30T05:23:53;3.50;;;2.53;;
7116;SDS011;3600;48.568;7.870;2023-09-30T05:26:20;5.10;;;3.30;;
7116;SDS011;3600;48.568;7.870;2023-09-30T05:28:46;4.28;;;3.20;;
7116;SDS011;3600;48.568;7.870;2023-09-30T05:31:13;5.05;;;2.88;;
7116;SDS011;3600;48.568;7.870;2023-09-30T05:33:40;5.35;;;3.25;;
7116;SDS011;3600;48.568;7.870;2023-09-30T05:36:07;5.97;;;3.13;;
7116;SDS011;3600;48.568;7.870;2023-09-30T05:38:35;5.97;;;3.08;;
7116;SDS011;3600;48.568;7.870;2023-09-30T05:41:01;4.30;;;2.50;;
7116;SDS011;3600;48.568;7.870;2023-09-30T05:43:28;3.95;;;2.65;;
7116;SDS011;3600;48.568;7.870;2023-09-30T05:45:56;4.05;;;2.97;;
7116;SDS011;3600;48.568;7.870;2023-09-30T05:48:27;3.70;;;2.40;;
7116;SDS011;3600;48.568;7.870;2023-09-30T05:50:54;3.90;;;2.70;;
7116;SDS011;3600;48.568;7.870;2023-09-30T05:53:21;4.38;;;3.03;;
7116;SDS011;3600;48.568;7.870;2023-09-30T05:55:49;5.55;;;3.20;;
7116;SDS011;3600;48.568;7.870;2023-09-30T05:58:17;5.25;;;2.80;;
7116;SDS011;3600;48.568;7.870;2023-09-30T06:00:44;4.80;;;3.55;;
7116;SDS011;3600;48.568;7.870;2023-09-30T06:03:11;3.83;;;3.17;;
7116;SDS011;3600;48.568;7.870;2023-09-30T06:05:41;5.13;;;3.40;;
7116;SDS011;3600;48.568;7.870;2023-09-30T06:08:08;4.25;;;3.25;;
7116;SDS011;3600;48.568;7.870;2023-09-30T06:10:43;6.90;;;3.28;;
7116;SDS011;3600;48.568;7.870;2023-09-30T06:13:10;3.85;;;3.28;;
7116;SDS011;3600;48.568;7.870;2023-09-30T06:15:41;3.28;;;2.97;;
7116;SDS011;3600;48.568;7.870;2023-09-30T06:18:10;4.40;;;3.42;;
7116;SDS011;3600;48.568;7.870;2023-09-30T06:20:40;4.82;;;3.42;;
7116;SDS011;3600;48.568;7.870;2023-09-30T06:23:08;4.50;;;3.20;;
7116;SDS011;3600;48.568;7.870;2023-09-30T06:25:36;4.95;;;3.22;;
7116;SDS011;3600;48.568;7.870;2023-09-30T06:28:03;5.13;;;3.17;;
7116;SDS011;3600;48.568;7.870;2023-09-30T06:30:31;3.80;;;3.20;;
7116;SDS011;3600;48.568;7.870;2023-09-30T06:33:00;3.78;;;3.30;;
7116;SDS011;3600;48.568;7.870;2023-09-30T06:35:32;5.88;;;3.45;;
7116;SDS011;3600;48.568;7.870;2023-09-30T06:38:04;5.78;;;3.90;;
7116;SDS011;3600;48.568;7.870;2023-09-30T06:40:33;4.18;;;3.78;;
7116;SDS011;3600;48.568;7.870;2023-09-30T06:43:04;5.25;;;3.40;;
7116;SDS011;3600;48.568;7.870;2023-09-30T06:45:31;3.90;;;3.28;;
7116;SDS011;3600;48.568;7.870;2023-09-30T06:47:59;5.90;;;3.70;;
7116;SDS011;3600;48.568;7.870;2023-09-30T06:50:26;4.28;;;3.42;;
7116;SDS011;3600;48.568;7.870;2023-09-30T06:52:53;4.40;;;3.97;;
7116;SDS011;3600;48.568;7.870;2023-09-30T06:55:20;6.18;;;4.10;;
7116;SDS011;3600;48.568;7.870;2023-09-30T06:57:47;3.97;;;3.58;;
7116;SDS011;3600;48.568;7.870;2023-09-30T07:00:14;6.07;;;4.07;;
7116;SDS011;3600;48.568;7.870;2023-09-30T07:02:41;5.03;;;4.03;;
7116;SDS011;3600;48.568;7.870;2023-09-30T07:05:09;6.15;;;4.80;;
7116;SDS011;3600;48.568;7.870;2023-09-30T07:07:38;6.80;;;4.60;;
7116;SDS011;3600;48.568;7.870;2023-09-30T07:10:06;5.10;;;4.60;;
7116;SDS011;3600;48.568;7.870;2023-09-30T07:12:34;6.50;;;4.32;;
7116;SDS011;3600;48.568;7.870;2023-09-30T07:15:03;5.00;;;3.53;;
7116;SDS011;3600;48.568;7.870;2023-09-30T07:17:31;5.65;;;4.40;;
7116;SDS011;3600;48.568;7.870;2023-09-30T07:20:01;7.05;;;4.88;;
7116;SDS011;3600;48.568;7.870;2023-09-30T07:22:29;6.00;;;4.50;;
7116;SDS011;3600;48.568;7.870;2023-09-30T07:24:58;4.28;;;3.88;;
7116;SDS011;3600;48.568;7.870;2023-09-30T07:27:26;6.05;;;3.60;;
7116;SDS011;3600;48.568;7.870;2023-09-30T07:29:54;5.45;;;4.07;;
7116;SDS011;3600;48.568;7.870;2023-09-30T07:32:21;7.80;;;4.25;;
7116;SDS011;3600;48.568;7.870;2023-09-30T07:34:51;4.40;;;4.00;;
7116;SDS011;3600;48.568;7.870;2023-09-30T07:37:18;4.72;;;3.55;;
7116;SDS011;3600;48.568;7.870;2023-09-30T07:39:47;4.88;;;3.80;;
7116;SDS011;3600;48.568;7.870;2023-09-30T07:42:14;4.40;;;3.30;;
7116;SDS011;3600;48.568;7.870;2023-09-30T07:44:40;4.30;;;3.90;;
7116;SDS011;3600;48.568;7.870;2023-09-30T07:47:07;5.68;;;3.75;;
7116;SDS011;3600;48.568;7.870;2023-09-30T07:49:37;7.10;;;4.30;;
7116;SDS011;3600;48.568;7.870;2023-09-30T07:52:05;7.50;;;4.10;;
7116;SDS011;3600;48.568;7.870;2023-09-30T07:54:31;5.78;;;3.67;;
7116;SDS011;3600;48.568;7.870;2023-09-30T07:56:59;4.43;;;3.90;;
7116;SDS011;3600;48.568;7.870;2023-09-30T07:59:26;3.60;;;3.30;;
7116;SDS011;3600;48.568;7.870;2023-09-30T08:01:53;5.47;;;3.65;;
7116;SDS011;3600;48.568;7.870;2023-09-30T08:04:20;4.15;;;3.00;;
7116;SDS011;3600;48.568;7.870;2023-09-30T08:06:48;5.47;;;3.63;;
7116;SDS011;3600;48.568;7.870;2023-09-30T08:09:15;4.95;;;3.83;;
7116;SDS011;3600;48.568;7.870;2023-09-30T08:11:45;3.83;;;3.45;;
7116;SDS011;3600;48.568;7.870;2023-09-30T08:14:12;4.47;;;2.97;;
7116;SDS011;3600;48.568;7.870;2023-09-30T08:16:39;3.28;;;2.97;;
7116;SDS011;3600;48.568;7.870;2023-09-30T08:19:06;4.38;;;3.78;;
7116;SDS011;3600;48.568;7.870;2023-09-30T08:21:33;3.90;;;3.50;;
7116;SDS011;3600;48.568;7.870;2023-09-30T08:24:01;3.65;;;3.20;;
7116;SDS011;3600;48.568;7.870;2023-09-30T08:26:28;5.72;;;4.25;;
7116;SDS011;3600;48.568;7.870;2023-09-30T08:28:56;6.45;;;4.03;;
7116;SDS011;3600;48.568;7.870;2023-09-30T08:31:23;8.27;;;4.03;;
7116;SDS011;3600;48.568;7.870;2023-09-30T08:33:50;4.00;;;3.30;;
7116;SDS011;3600;48.568;7.870;2023-09-30T08:36:17;5.43;;;4.38;;
7116;SDS011;3600;48.568;7.870;2023-09-30T08:38:45;6.55;;;4.03;;
7116;SDS011;3600;48.568;7.870;2023-09-30T08:41:16;4.55;;;3.50;;
7116;SDS011;3600;48.568;7.870;2023-09-30T08:43:56;4.75;;;3.38;;
7116;SDS011;3600;48.568;7.870;2023-09-30T08:46:28;4.50;;;3.17;;
7116;SDS011;3600;48.568;7.870;2023-09-30T08:48:58;4.28;;;3.20;;
7116;SDS011;3600;48.568;7.870;2023-09-30T08:51:30;6.50;;;4.80;;
7116;SDS011;3600;48.568;7.870;2023-09-30T08:53:58;3.85;;;3.47;;
7116;SDS011;3600;48.568;7.870;2023-09-30T08:56:29;3.92;;;3.20;;
7116;SDS011;3600;48.568;7.870;2023-09-30T08:59:00;5.05;;;3.17;;
7116;SDS011;3600;48.568;7.870;2023-09-30T09:01:28;5.85;;;3.70;;
7116;SDS011;3600;48.568;7.870;2023-09-30T09:03:56;6.63;;;3.60;;
7116;SDS011;3600;48.568;7.870;2023-09-30T09:06:24;4.28;;;3.40;;
7116;SDS011;3600;48.568;7.870;2023-09-30T09:08:52;5.68;;;4.65;;
7116;SDS011;3600;48.568;7.870;2023-09-30T09:11:19;4.15;;;3.17;;
7116;SDS011;3600;48.568;7.870;2023-09-30T09:13:50;3.40;;;3.08;;
7116;SDS011;3600;48.568;7.870;2023-09-30T09:16:22;6.05;;;3.63;;
7116;SDS011;3600;48.568;7.870;2023-09-30T09:18:52;4.30;;;3.80;;
7116;SDS011;3600;48.568;7.870;2023-09-30T09:21:21;7.97;;;4.05;;
7116;SDS011;3600;48.568;7.870;2023-09-30T09:23:53;6.00;;;3.80;;
7116;SDS011;3600;48.568;7.870;2023-09-30T09:26:27;3.85;;;3.45;;
7116;SDS011;3600;48.568;7.870;2023-09-30T09:29:02;4.70;;;3.05;;
7116;SDS011;3600;48.568;7.870;2023-09-30T09:31:34;4.82;;;4.07;;
7116;SDS011;3600;48.568;7.870;2023-09-30T09:34:03;4.15;;;3.33;;
7116;SDS011;3600;48.568;7.870;2023-09-30T09:36:39;5.97;;;3.58;;
7116;SDS011;3600;48.568;7.870;2023-09-30T09:39:08;6.10;;;3.90;;
7116;SDS011;3600;48.568;7.870;2023-09-30T09:41:48;6.40;;;4.05;;
7116;SDS011;3600;48.568;7.870;2023-09-30T09:44:19;4.90;;;3.40;;
7116;SDS011;3600;48.568;7.870;2023-09-30T09:46:53;6.93;;;3.80;;
7116;SDS011;3600;48.568;7.870;2023-09-30T09:49:20;5.10;;;3.90;;
7116;SDS011;3600;48.568;7.870;2023-09-30T09:51:48;6.25;;;3.92;;
7116;SDS011;3600;48.568;7.870;2023-09-30T09:54:16;4.63;;;3.20;;
7116;SDS011;3600;48.568;7.870;2023-09-30T09:56:46;5.82;;;3.30;;
7116;SDS011;3600;48.568;7.870;2023-09-30T09:59:14;4.38;;;3.47;;
7116;SDS011;3600;48.568;7.870;2023-09-30T10:01:41;5.00;;;3.10;;
7116;SDS011;3600;48.568;7.870;2023-09-30T10:04:12;3.25;;;2.88;;
7116;SDS011;3600;48.568;7.870;2023-09-30T10:06:42;2.92;;;2.40;;
7116;SDS011;3600;48.568;7.870;2023-09-30T10:09:14;3.58;;;2.60;;
7116;SDS011;3600;48.568;7.870;2023-09-30T10:11:44;2.80;;;2.60;;
7116;SDS011;3600;48.568;7.870;2023-09-30T10:14:24;3.08;;;2.38;;
7116;SDS011;3600;48.568;7.870;2023-09-30T10:16:58;4.78;;;1.98;;
7116;SDS011;3600;48.568;7.870;2023-09-30T10:19:25;3.33;;;2.42;;
7116;SDS011;3600;48.568;7.870;2023-09-30T10:24:46;3.33;;;2.80;;
7116;SDS011;3600;48.568;7.870;2023-09-30T10:29:48;4.57;;;2.88;;
7116;SDS011;3600;48.568;7.870;2023-09-30T10:35:18;6.43;;;3.05;;
7116;SDS011;3600;48.568;7.870;2023-09-30T10:37:46;3.20;;;2.90;;
7116;SDS011;3600;48.568;7.870;2023-09-30T10:40:26;3.85;;;2.83;;
7116;SDS011;3600;48.568;7.870;2023-09-30T10:42:55;5.25;;;2.80;;
7116;SDS011;3600;48.568;7.870;2023-09-30T10:50:52;4.25;;;2.60;;
7116;SDS011;3600;48.568;7.870;2023-09-30T10:53:22;4.43;;;3.00;;
7116;SDS011;3600;48.568;7.870;2023-09-30T10:55:56;3.28;;;2.97;;
7116;SDS011;3600;48.568;7.870;2023-09-30T11:01:16;3.03;;;2.63;;
7116;SDS011;3600;48.568;7.870;2023-09-30T11:03:44;3.72;;;2.75;;
7116;SDS011;3600;48.568;7.870;2023-09-30T11:06:16;3.25;;;2.70;;
7116;SDS011;3600;48.568;7.870;2023-09-30T11:08:55;5.28;;;2.50;;
7116;SDS011;3600;48.568;7.870;2023-09-30T11:11:33;4.75;;;3.08;;
7116;SDS011;3600;48.568;7.870;2023-09-30T11:14:19;4.65;;;2.72;;
7116;SDS011;3600;48.568;7.870;2023-09-30T11:16:55;4.00;;;2.55;;
7116;SDS011;3600;48.568;7.870;2023-09-30T11:19:26;5.93;;;2.80;;
7116;SDS011;3600;48.568;7.870;2023-09-30T11:21:54;6.03;;;3.30;;
7116;SDS011;3600;48.568;7.870;2023-09-30T11:24:22;6.93;;;2.75;;
7116;SDS011;3600;48.568;7.870;2023-09-30T11:26:52;5.00;;;3.03;;
7116;SDS011;3600;48.568;7.870;2023-09-30T11:29:20;5.28;;;2.53;;
7116;SDS011;3600;48.568;7.870;2023-09-30T11:31:47;3.28;;;2.25;;
7116;SDS011;3600;48.568;7.870;2023-09-30T11:34:17;5.55;;;3.17;;
7116;SDS011;3600;48.568;7.870;2023-09-30T11:36:51;5.60;;;3.10;;
7116;SDS011;3600;48.568;7.870;2023-09-30T11:39:22;4.68;;;3.05;;
7116;SDS011;3600;48.568;7.870;2023-09-30T11:41:50;4.50;;;3.15;;
7116;SDS011;3600;48.568;7.870;2023-09-30T11:44:18;5.88;;;4.07;;
7116;SDS011;3600;48.568;7.870;2023-09-30T11:47:01;5.55;;;3.63;;
7116;SDS011;3600;48.568;7.870;2023-09-30T11:49:35;5.53;;;3.47;;
7116;SDS011;3600;48.568;7.870;2023-09-30T11:52:08;4.88;;;3.15;;
7116;SDS011;3600;48.568;7.870;2023-09-30T11:54:37;3.88;;;3.40;;
7116;SDS011;3600;48.568;7.870;2023-09-30T11:57:16;4.95;;;3.17;;
7116;SDS011;3600;48.568;7.870;2023-09-30T11:59:45;4.93;;;3.58;;
7116;SDS011;3600;48.568;7.870;2023-09-30T12:02:14;5.13;;;3.03;;
7116;SDS011;3600;48.568;7.870;2023-09-30T12:04:44;4.43;;;3.03;;
7116;SDS011;3600;48.568;7.870;2023-09-30T12:07:14;6.05;;;3.45;;
7116;SDS011;3600;48.568;7.870;2023-09-30T12:09:41;5.20;;;3.28;;
7116;SDS011;3600;48.568;7.870;2023-09-30T12:12:09;5.15;;;3.78;;
7116;SDS011;3600;48.568;7.870;2023-09-30T12:14:38;5.75;;;3.90;;
7116;SDS011;3600;48.568;7.870;2023-09-30T12:17:05;7.05;;;4.28;;
7116;SDS011;3600;48.568;7.870;2023-09-30T12:19:32;6.40;;;4.03;;
7116;SDS011;3600;48.568;7.870;2023-09-30T12:22:00;5.00;;;3.58;;
7116;SDS011;3600;48.568;7.870;2023-09-30T12:24:27;5.20;;;3.78;;
7116;SDS011;3600;48.568;7.870;2023-09-30T12:26:54;5.90;;;3.50;;
7116;SDS011;3600;48.568;7.870;2023-09-30T12:29:21;6.53;;;4.60;;
7116;SDS011;3600;48.568;7.870;2023-09-30T12:31:51;6.88;;;3.97;;
7116;SDS011;3600;48.568;7.870;2023-09-30T12:34:20;5.43;;;4.03;;
7116;SDS011;3600;48.568;7.870;2023-09-30T12:36:52;7.20;;;4.15;;
7116;SDS011;3600;48.568;7.870;2023-09-30T12:39:20;7.38;;;4.57;;
7116;SDS011;3600;48.568;7.870;2023-09-30T12:41:52;7.50;;;4.65;;
7116;SDS011;3600;48.568;7.870;2023-09-30T12:44:22;6.20;;;4.38;;
7116;SDS011;3600;48.568;7.870;2023-09-30T12:46:49;5.95;;;4.00;;
7116;SDS011;3600;48.568;7.870;2023-09-30T12:49:16;5.15;;;3.85;;
7116;SDS011;3600;48.568;7.870;2023-09-30T12:51:44;8.98;;;4.85;;
7116;SDS011;3600;48.568;7.870;2023-09-30T12:54:11;7.95;;;4.20;;
7116;SDS011;3600;48.568;7.870;2023-09-30T12:56:39;7.25;;;4.13;;
7116;SDS011;3600;48.568;7.870;2023-09-30T12:59:06;7.40;;;4.53;;
7116;SDS011;3600;48.568;7.870;2023-09-30T13:01:33;8.68;;;4.13;;
7116;SDS011;3600;48.568;7.870;2023-09-30T13:04:02;6.75;;;3.95;;
7116;SDS011;3600;48.568;7.870;2023-09-30T13:06:29;5.95;;;3.85;;
7116;SDS011;3600;48.568;7.870;2023-09-30T13:08:59;6.45;;;4.43;;
7116;SDS011;3600;48.568;7.870;2023-09-30T13:11:26;6.70;;;3.42;;
7116;SDS011;3600;48.568;7.870;2023-09-30T13:13:53;6.72;;;4.55;;
7116;SDS011;3600;48.568;7.870;2023-09-30T13:16:24;7.97;;;3.88;;
7116;SDS011;3600;48.568;7.870;2023-09-30T13:18:58;5.03;;;3.72;;
7116;SDS011;3600;48.568;7.870;2023-09-30T13:21:26;6.78;;;4.18;;
7116;SDS011;3600;48.568;7.870;2023-09-30T13:23:53;6.22;;;4.10;;
7116;SDS011;3600;48.568;7.870;2023-09-30T13:26:23;10.82;;;4.18;;
7116;SDS011;3600;48.568;7.870;2023-09-30T13:29:07;6.25;;;4.28;;
7116;SDS011;3600;48.568;7.870;2023-09-30T13:31:36;6.95;;;4.05;;
7116;SDS011;3600;48.568;7.870;2023-09-30T13:34:04;8.07;;;4.28;;
7116;SDS011;3600;48.568;7.870;2023-09-30T13:36:32;7.57;;;4.63;;
7116;SDS011;3600;48.568;7.870;2023-09-30T13:38:59;6.85;;;4.00;;
7116;SDS011;3600;48.568;7.870;2023-09-30T13:41:27;6.00;;;3.97;;
7116;SDS011;3600;48.568;7.870;2023-09-30T13:43:54;8.07;;;4.28;;
7116;SDS011;3600;48.568;7.870;2023-09-30T13:46:21;7.47;;;4.32;;
7116;SDS011;3600;48.568;7.870;2023-09-30T13:48:51;8.32;;;3.90;;
7116;SDS011;3600;48.568;7.870;2023-09-30T13:51:19;5.50;;;3.67;;
7116;SDS011;3600;48.568;7.870;2023-09-30T13:53:46;7.85;;;4.43;;
7116;SDS011;3600;48.568;7.870;2023-09-30T13:56:13;5.90;;;3.70;;
7116;SDS011;3600;48.568;7.870;2023-09-30T13:58:40;5.93;;;3.80;;
7116;SDS011;3600;48.568;7.870;2023-09-30T14:01:08;6.82;;;3.90;;
7116;SDS011;3600;48.568;7.870;2023-09-30T14:03:37;8.55;;;4.40;;
7116;SDS011;3600;48.568;7.870;2023-09-30T14:06:08;5.80;;;3.92;;
7116;SDS011;3600;48.568;7.870;2023-09-30T14:08:38;6.07;;;4.20;;
7116;SDS011;3600;48.568;7.870;2023-09-30T14:11:09;7.40;;;4.43;;
7116;SDS011;3600;48.568;7.870;2023-09-30T14:13:38;6.63;;;3.85;;
7116;SDS011;3600;48.568;7.870;2023-09-30T14:16:05;6.47;;;4.15;;
7116;SDS011;3600;48.568;7.870;2023-09-30T14:18:33;6.13;;;4.00;;
7116;SDS011;3600;48.568;7.870;2023-09-30T14:21:02;6.90;;;4.40;;
7116;SDS011;3600;48.568;7.870;2023-09-30T14:23:29;5.55;;;3.70;;
7116;SDS011;3600;48.568;7.870;2023-09-30T14:25:56;6.57;;;4.28;;
7116;SDS011;3600;48.568;7.870;2023-09-30T14:28:23;6.38;;;3.75;;
7116;SDS011;3600;48.568;7.870;2023-09-30T14:30:50;6.20;;;3.70;;
7116;SDS011;3600;48.568;7.870;2023-09-30T14:33:17;5.75;;;3.83;;
7116;SDS011;3600;48.568;7.870;2023-09-30T14:35:45;5.40;;;3.90;;
7116;SDS011;3600;48.568;7.870;2023-09-30T14:38:16;6.30;;;3.70;;
7116;SDS011;3600;48.568;7.870;2023-09-30T14:40:52;6.35;;;4.10;;
7116;SDS011;3600;48.568;7.870;2023-09-30T14:43:41;7.15;;;4.45;;
7116;SDS011;3600;48.568;7.870;2023-09-30T14:46:28;4.57;;;3.75;;
7116;SDS011;3600;48.568;7.870;2023-09-30T14:49:12;7.55;;;4.97;;
7116;SDS011;3600;48.568;7.870;2023-09-30T14:51:45;5.95;;;4.00;;
7116;SDS011;3600;48.568;7.870;2023-09-30T14:54:15;5.93;;;4.30;;
7116;SDS011;3600;48.568;7.870;2023-09-30T14:56:42;8.57;;;4.70;;
7116;SDS011;3600;48.568;7.870;2023-09-30T14:59:18;6.07;;;3.85;;
7116;SDS011;3600;48.568;7.870;2023-09-30T15:01:46;6.80;;;4.10;;
7116;SDS011;3600;48.568;7.870;2023-09-30T15:04:13;6.75;;;4.07;;
7116;SDS011;3600;48.568;7.870;2023-09-30T15:06:47;6.85;;;4.32;;
7116;SDS011;3600;48.568;7.870;2023-09-30T15:09:29;7.55;;;4.70;;
7116;SDS011;3600;48.568;7.870;2023-09-30T15:11:56;6.45;;;4.38;;
7116;SDS011;3600;48.568;7.870;2023-09-30T15:14:24;6.43;;;4.32;;
7116;SDS011;3600;48.568;7.870;2023-09-30T15:16:51;6.22;;;4.35;;
7116;SDS011;3600;48.568;7.870;2023-09-30T15:19:18;8.32;;;4.38;;
7116;SDS011;3600;48.568;7.870;2023-09-30T15:21:45;6.72;;;4.32;;
7116;SDS011;3600;48.568;7.870;2023-09-30T15:24:12;7.82;;;4.53;;
7116;SDS011;3600;48.568;7.870;2023-09-30T15:26:39;7.13;;;3.88;;
7116;SDS011;3600;48.568;7.870;2023-09-30T15:29:06;7.05;;;4.25;;
7116;SDS011;3600;48.568;7.870;2023-09-30T15:31:33;6.85;;;4.20;;
7116;SDS011;3600;48.568;7.870;2023-09-30T15:34:01;7.50;;;3.83;;
7116;SDS011;3600;48.568;7.870;2023-09-30T15:36:29;7.82;;;4.45;;
7116;SDS011;3600;48.568;7.870;2023-09-30T15:38:56;7.05;;;4.55;;
7116;SDS011;3600;48.568;7.870;2023-09-30T15:41:23;5.93;;;4.03;;